Time;durP1;ratioP1;P1;durP2;ratioP2;P2;SDS_P1;SDS_P2;PMS_P1;PMS_P2;Temp;Humidity;BMP_temperature;BMP_pressure;BME280_temperature;BME280_humidity;BME280_pressure;Samples;Min_cycle;Max_cycle;Signal;HPM_P1;HPM_P2
2022/04/11 00:01:30;;;;;;;0.90;0.90;;;;;;;4.89;61.93;100402.13;103188;1279;99582;-62
2022/04/11 00:03:58;;;;;;;0.90;0.90;;;;;;;4.96;61.78;100402.27;103381;1280;109801;-62
2022/04/11 00:06:26;;;;;;;0.90;0.90;;;;;;;4.98;62.07;100403.15;103220;1279;139119;-61
2022/04/11 00:08:55;;;;;;;1.00;1.00;;;;;;;4.94;62.28;100402.99;103394;1279;96578;-61
2022/04/11 00:11:22;;;;;;;0.80;0.80;;;;;;;4.97;62.37;100406.86;103277;1279;138693;-60
2022/04/11 00:13:50;;;;;;;0.90;0.90;;;;;;;5.05;62.19;100409.98;103506;1279;99341;-62
2022/04/11 00:16:18;;;;;;;0.80;0.80;;;;;;;5.04;61.88;100415.27;103357;1278;109836;-62
2022/04/11 00:18:46;;;;;;;0.90;0.90;;;;;;;5.06;62.11;100415.80;103269;1279;138912;-63
2022/04/11 00:21:14;;;;;;;0.80;0.80;;;;;;;5.07;62.19;100419.48;103391;1279;97107;-63
2022/04/11 00:23:41;;;;;;;0.90;0.90;;;;;;;5.04;62.24;100423.90;103212;1279;138493;-62
2022/04/11 00:26:09;;;;;;;0.80;0.80;;;;;;;4.94;62.47;100420.23;103380;1279;98858;-63
2022/04/11 00:28:37;;;;;;;0.90;0.90;;;;;;;4.83;62.69;100422.55;103404;1278;138876;-63
2022/04/11 00:31:05;;;;;;;0.80;0.80;;;;;;;4.88;62.72;100423.77;103369;1279;96582;-60
2022/04/11 00:33:33;;;;;;;0.90;0.90;;;;;;;4.90;62.60;100426.23;103439;1278;96587;-64
2022/04/11 00:36:01;;;;;;;0.90;0.90;;;;;;;4.89;62.70;100423.41;103235;1279;138818;-61
2022/04/11 00:38:28;;;;;;;0.90;0.90;;;;;;;4.95;62.39;100425.52;103413;1279;99506;-63
2022/04/11 00:40:56;;;;;;;0.90;0.90;;;;;;;4.96;62.40;100424.98;103268;1278;138755;-62
2022/04/11 00:43:36;;;;;;;0.90;0.90;;;;;;;4.97;62.34;100430.25;103335;1279;97110;-63
2022/04/11 00:46:05;;;;;;;0.80;0.80;;;;;;;4.99;62.26;100428.48;103392;1279;96599;-62
2022/04/11 00:48:34;;;;;;;0.90;0.90;;;;;;;5.02;62.43;100429.36;103293;1279;139004;-64
2022/04/11 00:51:16;;;;;;;0.90;0.90;;;;;;;4.98;62.33;100431.48;103275;1279;99346;-63
2022/04/11 00:53:46;;;;;;;0.90;0.90;;;;;;;4.90;62.68;100434.84;103488;1278;139383;-63
2022/04/11 00:56:16;;;;;;;0.90;0.90;;;;;;;4.93;62.66;100435.55;103334;1279;96968;-62
2022/04/11 00:58:44;;;;;;;0.80;0.80;;;;;;;4.94;62.52;100435.89;103311;1279;138496;-62
2022/04/11 01:01:14;;;;;;;1.00;1.00;;;;;;;4.95;62.51;100434.83;103259;1279;111427;-61
2022/04/11 01:03:42;;;;;;;0.90;0.90;;;;;;;4.95;62.59;100435.00;103468;1279;100021;-62
2022/04/11 01:06:10;;;;;;;0.80;0.80;;;;;;;4.89;62.68;100438.89;103141;1279;139110;-62
2022/04/11 01:08:38;;;;;;;0.80;0.80;;;;;;;4.88;62.78;100440.11;103357;1279;97880;-62
2022/04/11 01:11:06;;;;;;;0.80;0.80;;;;;;;4.86;62.78;100444.18;103270;1279;138398;-62
2022/04/11 01:13:35;;;;;;;0.90;0.90;;;;;;;4.76;62.73;100444.02;103582;1278;111055;-62
2022/04/11 01:16:05;;;;;;;0.90;0.90;;;;;;;4.76;63.02;100447.17;103303;1279;98906;-62
2022/04/11 01:18:37;;;;;;;0.80;0.80;;;;;;;4.79;62.97;100449.65;103578;1279;138630;-63
2022/04/11 01:21:09;;;;;;;0.80;0.80;;;;;;;4.78;63.09;100453.70;103411;1279;96704;-62
2022/04/11 01:23:36;;;;;;;0.90;0.90;;;;;;;4.72;62.95;100451.23;103240;1281;138372;-62
2022/04/11 01:26:06;;;;;;;0.90;0.90;;;;;;;4.67;63.24;100449.48;103346;1279;112388;-63
2022/04/11 01:28:37;;;;;;;0.90;0.90;;;;;;;4.69;63.40;100451.59;103152;1279;219884;-60
2022/04/11 01:31:05;;;;;;;0.80;0.80;;;;;;;4.67;63.26;100455.47;103393;1279;109577;-63
2022/04/11 01:33:34;;;;;;;0.80;0.80;;;;;;;4.71;63.19;100457.58;103214;1279;96589;-62
2022/04/11 01:36:05;;;;;;;0.90;0.90;;;;;;;4.70;63.07;100458.81;103145;1279;138470;-62
2022/04/11 01:38:33;;;;;;;0.80;0.80;;;;;;;4.67;63.13;100463.73;103363;1279;111149;-60
2022/04/11 01:41:02;;;;;;;0.80;0.80;;;;;;;4.65;63.26;100466.55;103265;1279;139474;-61
2022/04/11 01:43:30;;;;;;;0.90;0.90;;;;;;;4.69;63.32;100466.02;103437;1279;108928;-61
2022/04/11 01:45:59;;;;;;;1.10;1.10;;;;;;;4.68;63.18;100471.29;103287;1279;96421;-61
2022/04/11 01:48:36;;;;;;;0.90;0.90;;;;;;;4.60;63.13;100473.41;103193;1279;139920;-62
2022/04/11 01:51:04;;;;;;;0.80;0.80;;;;;;;4.58;63.28;100473.60;103339;1279;111264;-61
2022/04/11 01:53:32;;;;;;;0.90;0.90;;;;;;;4.57;63.18;100474.47;103259;1278;138865;-62
2022/04/11 01:56:00;;;;;;;0.90;0.90;;;;;;;4.60;63.21;100480.97;103360;1279;108826;-62
2022/04/11 01:58:30;;;;;;;0.90;0.90;;;;;;;4.66;62.96;100483.61;103131;1279;142779;-61
2022/04/11 02:00:58;;;;;;;1.00;1.00;;;;;;;4.53;63.01;100482.38;103295;1279;96512;-61
2022/04/11 02:03:30;;;;;;;1.00;1.00;;;;;;;4.44;63.29;100487.47;103405;1279;111882;-62
2022/04/11 02:05:58;;;;;;;1.00;1.00;;;;;;;4.43;63.31;100488.36;103280;1279;138365;-62
2022/04/11 02:08:26;;;;;;;1.00;1.00;;;;;;;4.44;63.13;100494.85;103260;1279;108308;-63
2022/04/11 02:10:58;;;;;;;0.90;0.90;;;;;;;4.37;63.18;100493.28;103365;1279;139397;-63
2022/04/11 02:13:27;;;;;;;0.90;0.90;;;;;;;4.33;63.57;100501.70;103324;1279;97132;-63
2022/04/11 02:15:55;;;;;;;1.00;1.00;;;;;;;4.31;63.57;100498.90;103332;1279;109278;-62
2022/04/11 02:18:23;;;;;;;1.00;1.00;;;;;;;4.33;63.85;100497.50;103221;1279;139153;-61
2022/04/11 02:20:50;;;;;;;0.90;0.90;;;;;;;4.37;63.63;100498.38;103335;1279;108831;-63
2022/04/11 02:23:18;;;;;;;0.90;0.90;;;;;;;4.40;63.61;100494.69;103182;1279;139696;-60
2022/04/11 02:25:46;;;;;;;0.90;0.90;;;;;;;4.39;63.45;100494.88;103332;1279;97087;-61
2022/04/11 02:28:14;;;;;;;1.00;1.00;;;;;;;4.34;63.52;100497.14;103358;1279;111018;-63
2022/04/11 02:30:42;;;;;;;1.00;1.00;;;;;;;4.32;63.77;100497.84;103273;1278;138491;-62
2022/04/11 02:33:10;;;;;;;0.90;0.90;;;;;;;4.31;63.88;100504.17;103282;1279;109010;-63
2022/04/11 02:35:39;;;;;;;0.80;0.80;;;;;;;4.31;63.69;100502.06;103254;1279;138536;-62
2022/04/11 02:38:07;;;;;;;0.90;0.90;;;;;;;4.32;63.74;100500.48;103352;1279;96582;-61
2022/04/11 02:40:35;;;;;;;1.00;1.00;;;;;;;4.24;63.80;100503.46;103120;1279;138791;-62
2022/04/11 02:43:12;;;;;;;1.00;1.00;;;;;;;4.10;64.19;100501.85;103284;1279;99372;-62
2022/04/11 02:45:53;;;;;;;0.90;0.90;;;;;;;4.03;64.37;100507.11;103253;1279;108953;-62
2022/04/11 02:48:28;;;;;;;0.90;0.90;;;;;;;4.07;64.30;100509.93;103181;1279;138811;-62
2022/04/11 02:51:03;;;;;;;1.00;1.00;;;;;;;4.03;64.44;100502.20;103300;1279;96585;-62
2022/04/11 02:53:38;;;;;;;1.00;1.00;;;;;;;3.91;64.67;100500.59;103194;1279;138956;-63
2022/04/11 02:56:06;;;;;;;1.00;1.00;;;;;;;3.88;64.78;100500.23;103264;1279;99570;-64
2022/04/11 02:58:34;;;;;;;1.10;1.10;;;;;;;3.92;64.91;100500.23;103158;1279;139765;-63
2022/04/11 03:01:02;;;;;;;1.00;1.00;;;;;;;3.93;65.02;100500.59;103403;1279;96655;-63
2022/04/11 03:03:30;;;;;;;1.00;1.00;;;;;;;3.92;64.85;100497.77;103293;1279;96816;-62
2022/04/11 03:05:58;;;;;;;1.00;1.00;;;;;;;3.95;64.84;100502.19;103243;1279;138917;-62
2022/04/11 03:08:27;;;;;;;0.90;0.90;;;;;;;3.98;64.82;100503.41;103358;1279;99456;-62
2022/04/11 03:10:56;;;;;;;0.90;0.90;;;;;;;4.06;64.58;100507.65;103274;1279;138514;-63
2022/04/11 03:13:25;;;;;;;1.00;1.00;;;;;;;4.04;64.53;100511.67;103305;1279;96665;-62
2022/04/11 03:15:53;;;;;;;0.90;0.90;;;;;;;3.98;64.68;100513.25;103344;1279;97019;-61
2022/04/11 03:18:21;;;;;;;0.90;0.90;;;;;;;4.02;64.81;100518.00;103299;1279;139029;-63
2022/04/11 03:20:49;;;;;;;0.90;0.90;;;;;;;4.05;64.45;100518.01;103426;1278;100026;-63
2022/04/11 03:23:17;;;;;;;0.90;0.90;;;;;;;4.01;64.40;100519.58;103214;1279;139023;-61
2022/04/11 03:25:48;;;;;;;0.90;0.90;;;;;;;3.97;64.63;100520.28;103348;1279;96713;-63
2022/04/11 03:28:19;;;;;;;1.00;1.00;;;;;;;3.99;64.80;100523.45;103366;1279;96611;-63
2022/04/11 03:30:47;;;;;;;0.90;0.90;;;;;;;4.03;64.74;100521.17;103151;1279;139421;-62
2022/04/11 03:33:16;;;;;;;1.00;1.00;;;;;;;4.04;64.72;100523.64;103330;1279;98590;-62
2022/04/11 03:35:44;;;;;;;1.00;1.00;;;;;;;3.96;64.97;100518.35;103254;1279;138663;-61
2022/04/11 03:38:12;;;;;;;1.00;1.00;;;;;;;3.97;65.06;100518.35;103094;1280;97307;-62
2022/04/11 03:40:39;;;;;;;0.90;0.90;;;;;;;3.96;65.13;100520.28;103315;1279;139488;-61
2022/04/11 03:43:10;;;;;;;0.90;0.90;;;;;;;3.99;64.95;100518.88;103438;1279;111025;-61
2022/04/11 03:45:38;;;;;;;1.00;1.00;;;;;;;3.92;65.19;100521.85;103382;1279;99593;-61
2022/04/11 03:48:06;;;;;;;1.10;1.10;;;;;;;3.95;65.25;100525.02;103249;1279;139081;-63
2022/04/11 03:50:37;;;;;;;1.00;1.00;;;;;;;3.97;65.15;100522.91;103481;1279;97083;-60
2022/04/11 03:53:05;;;;;;;0.90;0.90;;;;;;;4.02;65.05;100522.75;103750;1279;139742;-62
2022/04/11 03:55:35;;;;;;;0.90;0.90;;;;;;;4.00;64.99;100529.25;103425;1279;111161;-63
2022/04/11 03:58:04;;;;;;;1.00;1.00;;;;;;;4.02;64.81;100530.13;103358;1279;99440;-62
2022/04/11 04:00:34;;;;;;;1.00;1.00;;;;;;;4.00;64.96;100530.48;103343;1279;138472;-64
2022/04/11 04:03:10;;;;;;;1.00;1.00;;;;;;;4.00;65.05;100529.25;103563;1279;96892;-62
2022/04/11 04:05:43;;;;;;;1.00;1.00;;;;;;;4.03;65.07;100532.94;103287;1279;139686;-63
2022/04/11 04:08:12;;;;;;;0.90;0.90;;;;;;;4.06;64.57;100536.29;103477;1278;111210;-61
2022/04/11 04:10:46;;;;;;;1.00;1.00;;;;;;;4.03;64.70;100539.79;103293;1279;138785;-63
2022/04/11 04:13:13;;;;;;;0.90;0.90;;;;;;;3.99;64.66;100542.23;103374;1279;107820;-62
2022/04/11 04:15:43;;;;;;;1.00;1.00;;;;;;;3.97;64.89;100541.88;103352;1279;97011;-64
2022/04/11 04:18:12;;;;;;;1.10;1.10;;;;;;;3.96;64.96;100546.46;103442;1279;139041;-62
2022/04/11 04:20:40;;;;;;;1.00;1.00;;;;;;;3.96;64.97;100549.45;103354;1279;111391;-63
2022/04/11 04:23:09;;;;;;;1.00;1.00;;;;;;;3.99;65.25;100550.32;103443;1279;138871;-62
2022/04/11 04:25:37;;;;;;;1.00;1.00;;;;;;;4.06;64.81;100549.29;103264;1279;109498;-62
2022/04/11 04:28:05;;;;;;;1.00;1.00;;;;;;;3.99;64.95;100553.66;103344;1279;97184;-63
2022/04/11 04:30:34;;;;;;;1.00;1.00;;;;;;;3.92;65.16;100552.58;103441;1279;139340;-63
2022/04/11 04:33:02;;;;;;;1.00;1.00;;;;;;;3.95;65.43;100554.36;103363;1279;111054;-62
2022/04/11 04:35:30;;;;;;;0.90;0.90;;;;;;;4.02;65.29;100557.35;103352;1279;139169;-63
2022/04/11 04:38:03;;;;;;;0.90;0.90;;;;;;;4.10;65.38;100561.08;103305;1279;109317;-63
2022/04/11 04:40:35;;;;;;;1.00;1.00;;;;;;;4.10;65.36;100562.30;103268;1279;139269;-60
2022/04/11 04:43:06;;;;;;;0.90;0.90;;;;;;;4.17;65.27;100565.48;103282;1279;96899;-62
2022/04/11 04:45:35;;;;;;;1.00;1.00;;;;;;;4.16;65.65;100563.39;103279;1279;111033;-62
2022/04/11 04:48:17;;;;;;;1.00;1.00;;;;;;;4.24;65.65;100567.09;103408;1279;139223;-63
2022/04/11 04:50:46;;;;;;;1.00;1.00;;;;;;;4.28;65.79;100564.98;103326;1279;108671;-63
2022/04/11 04:53:16;;;;;;;1.00;1.00;;;;;;;4.39;65.83;100562.72;103316;1279;138741;-62
2022/04/11 04:55:44;;;;;;;0.90;0.90;;;;;;;4.48;65.67;100565.36;103543;1279;97480;-63
2022/04/11 04:58:12;;;;;;;1.00;1.00;;;;;;;4.55;65.46;100565.73;103443;1279;111405;-61
2022/04/11 05:00:40;;;;;;;0.90;0.90;;;;;;;4.60;65.52;100566.25;103251;1281;140898;-65
2022/04/11 05:03:08;;;;;;;1.00;1.00;;;;;;;4.68;65.29;100568.02;103352;1279;108903;-64
2022/04/11 05:05:36;;;;;;;1.10;1.10;;;;;;;4.73;65.08;100566.98;103079;1281;139243;-61
2022/04/11 05:08:06;;;;;;;1.00;1.00;;;;;;;4.72;65.24;100572.95;103532;1279;97372;-61
2022/04/11 05:10:35;;;;;;;1.00;1.00;;;;;;;4.66;65.35;100576.29;103539;1279;138915;-62
2022/04/11 05:13:03;;;;;;;1.10;1.10;;;;;;;4.66;65.48;100571.01;103255;1281;99361;-61
2022/04/11 05:15:31;;;;;;;0.90;0.90;;;;;;;4.70;65.55;100571.71;103369;1279;108847;-63
2022/04/11 05:18:13;;;;;;;0.90;0.90;;;;;;;4.73;65.35;100567.50;103110;1279;138902;-61
2022/04/11 05:20:41;;;;;;;1.00;1.00;;;;;;;4.73;65.22;100574.71;103580;1279;96543;-62
2022/04/11 05:23:09;;;;;;;1.00;1.00;;;;;;;4.71;65.56;100576.99;103116;1279;139148;-62
2022/04/11 05:25:38;;;;;;;1.10;1.10;;;;;;;4.69;65.35;100582.09;103443;1279;99649;-64
2022/04/11 05:28:06;;;;;;;1.00;1.00;;;;;;;4.66;65.65;100577.70;103357;1279;108772;-64
2022/04/11 05:30:43;;;;;;;1.00;1.00;;;;;;;4.67;65.82;100579.10;103140;1279;139304;-64
2022/04/11 05:33:11;;;;;;;0.90;0.90;;;;;;;4.71;65.79;100579.45;103368;1279;96579;-65
2022/04/11 05:35:39;;;;;;;1.00;1.00;;;;;;;4.83;65.74;100574.19;103271;1279;138348;-65
2022/04/11 05:38:10;;;;;;;0.90;0.90;;;;;;;4.91;65.70;100578.94;103280;1279;99360;-63
2022/04/11 05:40:38;;;;;;;0.90;0.90;;;;;;;5.01;65.44;100584.73;103171;1279;139399;-64
2022/04/11 05:43:15;;;;;;;0.90;0.90;;;;;;;5.08;65.27;100586.31;103286;1281;97121;-65
2022/04/11 05:45:43;;;;;;;0.90;0.90;;;;;;;5.08;65.08;100593.19;103438;1281;96694;-63
2022/04/11 05:48:11;;;;;;;0.80;0.80;;;;;;;5.05;65.20;100597.58;103159;1279;138244;-63
2022/04/11 05:50:39;;;;;;;0.90;0.90;;;;;;;5.07;65.39;100598.45;103297;1279;99356;-62
2022/04/11 05:53:07;;;;;;;0.90;0.90;;;;;;;5.16;65.46;100600.91;103253;1281;141214;-63
2022/04/11 05:55:35;;;;;;;0.90;0.90;;;;;;;5.24;65.26;100601.44;103314;1281;96718;-63
2022/04/11 05:58:04;;;;;;;0.90;0.90;;;;;;;5.32;65.20;100606.00;103370;1279;97813;-64
2022/04/11 06:00:32;;;;;;;0.90;0.90;;;;;;;5.42;64.99;100606.87;103238;1279;140473;-63
2022/04/11 06:03:00;;;;;;;1.00;1.00;;;;;;;5.46;64.72;100607.20;103687;1279;99688;-63
2022/04/11 06:05:28;;;;;;;0.80;0.80;;;;;;;5.49;64.41;100608.98;103175;1279;138992;-63
2022/04/11 06:07:56;;;;;;;0.80;0.80;;;;;;;5.55;64.25;100602.44;103229;1279;97892;-62
2022/04/11 06:10:24;;;;;;;0.90;0.90;;;;;;;5.53;64.18;100606.84;103424;1279;97987;-63
2022/04/11 06:12:54;;;;;;;0.80;0.80;;;;;;;5.53;64.28;100609.48;103190;1279;138132;-64
2022/04/11 06:15:22;;;;;;;0.90;0.90;;;;;;;5.63;64.46;100602.24;103406;1279;99364;-63
2022/04/11 06:17:54;;;;;;;0.90;0.90;;;;;;;5.82;64.13;100610.82;103316;1279;138862;-65
2022/04/11 06:20:22;;;;;;;0.90;0.90;;;;;;;6.01;63.96;100613.41;103373;1279;97893;-63
2022/04/11 06:22:50;;;;;;;0.80;0.80;;;;;;;6.21;63.40;100616.15;103172;1279;139653;-64
2022/04/11 06:25:18;;;;;;;0.80;0.80;;;;;;;6.18;62.73;100618.64;103259;1279;111259;-62
2022/04/11 06:27:46;;;;;;;0.90;0.90;;;;;;;6.15;62.78;100619.70;103373;1279;99598;-63
2022/04/11 06:30:14;;;;;;;0.80;0.80;;;;;;;6.04;62.51;100618.52;103185;1279;138510;-63
2022/04/11 06:32:43;;;;;;;0.80;0.80;;;;;;;6.00;62.61;100625.59;103212;1279;97090;-65
2022/04/11 06:35:11;;;;;;;0.80;0.80;;;;;;;5.96;62.66;100622.77;103248;1279;139181;-64
2022/04/11 06:37:40;;;;;;;0.70;0.70;;;;;;;5.91;62.77;100625.23;103464;1279;111039;-63
2022/04/11 06:40:08;;;;;;;0.80;0.80;;;;;;;5.92;62.80;100625.05;103381;1279;97814;-63
2022/04/11 06:42:37;;;;;;;0.80;0.80;;;;;;;5.94;62.64;100632.63;103295;1279;138891;-63
2022/04/11 06:45:07;;;;;;;0.80;0.80;;;;;;;5.97;62.75;100630.34;103436;1279;96613;-64
2022/04/11 06:47:34;;;;;;;0.90;0.90;;;;;;;6.06;62.67;100632.79;103825;1279;139011;-64
2022/04/11 06:50:02;;;;;;;0.80;0.80;;;;;;;6.22;62.31;100635.02;103298;1279;109891;-66
2022/04/11 06:52:30;;;;;;;0.90;0.90;;;;;;;6.36;62.31;100636.00;103287;1279;138887;-63
2022/04/11 06:54:58;;;;;;;0.80;0.80;;;;;;;6.49;61.48;100634.17;103356;1279;108941;-64
2022/04/11 06:57:26;;;;;;;0.80;0.80;;;;;;;6.47;61.33;100637.88;103439;1279;96671;-65
2022/04/11 06:59:53;;;;;;;0.80;0.80;;;;;;;6.52;61.14;100639.09;103284;1279;138955;-63
2022/04/11 07:02:21;;;;;;;0.80;0.80;;;;;;;6.50;60.84;100641.05;103408;1279;111080;-63
2022/04/11 07:04:49;;;;;;;0.90;0.90;;;;;;;6.44;60.87;100638.42;103248;1279;138580;-64
2022/04/11 07:07:18;;;;;;;1.00;1.00;;;;;;;6.44;60.90;100644.78;103378;1279;109135;-63
2022/04/11 07:09:46;;;;;;;0.80;0.80;;;;;;;6.44;61.10;100645.84;103302;1279;97874;-65
2022/04/11 07:12:14;;;;;;;0.90;0.90;;;;;;;6.50;60.93;100646.33;103301;1279;138159;-64
2022/04/11 07:14:41;;;;;;;0.80;0.80;;;;;;;6.57;61.10;100646.65;103239;1280;111322;-64
2022/04/11 07:17:09;;;;;;;0.90;0.90;;;;;;;6.67;60.64;100647.64;103281;1279;139389;-64
2022/04/11 07:19:37;;;;;;;0.80;0.80;;;;;;;6.77;60.53;100648.45;103435;1279;108169;-64
2022/04/11 07:22:05;;;;;;;0.70;0.70;;;;;;;6.68;60.26;100646.76;103332;1279;97143;-64
2022/04/11 07:24:36;;;;;;;0.80;0.80;;;;;;;6.60;60.26;100652.29;103341;1279;139136;-64
2022/04/11 07:27:04;;;;;;;0.80;0.80;;;;;;;6.56;60.62;100650.72;103550;1279;111163;-66
2022/04/11 07:29:32;;;;;;;0.80;0.80;;;;;;;6.71;60.67;100654.67;103319;1279;138481;-66
2022/04/11 07:31:59;;;;;;;0.70;0.70;;;;;;;7.04;60.81;100654.98;103304;1279;107784;-63
2022/04/11 07:34:27;;;;;;;0.70;0.70;;;;;;;7.29;59.96;100652.66;103367;1279;97485;-64
2022/04/11 07:36:55;;;;;;;0.80;0.80;;;;;;;7.35;59.04;100651.89;103298;1279;138181;-64
2022/04/11 07:39:25;;;;;;;0.70;0.70;;;;;;;7.34;58.86;100650.50;103436;1279;111610;-63
2022/04/11 07:41:53;;;;;;;0.80;0.80;;;;;;;7.38;58.48;100654.17;103286;1281;138354;-65
2022/04/11 07:44:22;;;;;;;0.70;0.70;;;;;;;7.42;58.62;100649.73;103403;1279;108997;-64
2022/04/11 07:46:49;;;;;;;0.70;0.70;;;;;;;7.65;58.53;100648.08;103706;1279;138879;-65
2022/04/11 07:49:17;;;;;;;0.60;0.60;;;;;;;7.90;57.80;100647.29;103459;1279;96965;-65
2022/04/11 07:51:45;;;;;;;0.60;0.60;;;;;;;7.93;57.06;100648.31;103428;1279;110943;-65
2022/04/11 07:54:13;;;;;;;0.60;0.60;;;;;;;7.93;57.40;100651.14;103324;1279;138345;-64
2022/04/11 07:56:40;;;;;;;0.60;0.60;;;;;;;8.00;57.26;100654.05;103444;1279;106940;-65
2022/04/11 07:59:08;;;;;;;0.70;0.70;;;;;;;8.17;56.96;100659.69;103299;1279;138600;-63
2022/04/11 08:01:36;;;;;;;0.60;0.60;;;;;;;8.15;56.76;100660.24;103371;1279;96475;-65
2022/04/11 08:04:04;;;;;;;0.60;0.60;;;;;;;8.08;57.09;100664.93;103422;1279;110947;-63
2022/04/11 08:06:32;;;;;;;0.60;0.60;;;;;;;8.07;57.13;100664.76;103227;1281;139251;-64
2022/04/11 08:09:00;;;;;;;0.60;0.60;;;;;;;8.19;57.29;100665.15;103400;1279;108951;-62
2022/04/11 08:11:28;;;;;;;0.70;0.70;;;;;;;8.18;56.64;100669.59;103275;1279;138704;-64
2022/04/11 08:13:55;;;;;;;0.70;0.70;;;;;;;8.20;56.57;100672.56;103469;1279;97008;-62
2022/04/11 08:16:23;;;;;;;0.80;0.80;;;;;;;8.19;56.08;100674.34;103428;1279;111115;-65
2022/04/11 08:18:51;;;;;;;0.70;0.70;;;;;;;8.12;56.07;100673.55;103359;1279;138063;-64
2022/04/11 08:21:19;;;;;;;0.70;0.70;;;;;;;8.18;55.70;100678.24;103443;1279;108806;-63
2022/04/11 08:23:46;;;;;;;0.70;0.70;;;;;;;8.18;55.81;100685.32;103333;1279;139297;-65
2022/04/11 08:26:14;;;;;;;0.70;0.70;;;;;;;8.12;55.78;100686.10;103467;1279;96705;-64
2022/04/11 08:28:42;;;;;;;0.70;0.70;;;;;;;8.09;55.68;100686.67;103350;1279;139364;-64
2022/04/11 08:31:10;;;;;;;0.70;0.70;;;;;;;8.15;55.43;100684.30;103410;1279;99454;-64
2022/04/11 08:33:38;;;;;;;0.60;0.60;;;;;;;8.24;55.41;100682.08;103409;1279;109139;-63
2022/04/11 08:36:06;;;;;;;0.60;0.60;;;;;;;8.42;55.24;100677.08;103327;1279;139025;-64
2022/04/11 08:38:34;;;;;;;0.60;0.60;;;;;;;8.81;55.25;100679.94;103413;1279;97809;-64
2022/04/11 08:41:03;;;;;;;0.60;0.60;;;;;;;9.08;54.37;100677.77;103354;1279;138344;-63
2022/04/11 08:43:32;;;;;;;0.60;0.60;;;;;;;9.08;54.18;100677.61;103417;1279;99686;-63
2022/04/11 08:46:02;;;;;;;0.60;0.60;;;;;;;9.01;53.91;100680.52;103460;1279;107376;-64
2022/04/11 08:48:31;;;;;;;0.60;0.60;;;;;;;9.03;53.14;100679.08;103378;1279;138316;-63
2022/04/11 08:50:59;;;;;;;0.60;0.60;;;;;;;9.12;52.21;100676.29;103435;1279;96582;-63
2022/04/11 08:53:27;;;;;;;0.60;0.60;;;;;;;9.30;52.48;100677.40;103302;1279;138578;-64
2022/04/11 08:55:54;;;;;;;0.60;0.60;;;;;;;9.53;51.52;100673.83;103349;1281;99499;-63
2022/04/11 08:58:23;;;;;;;0.60;0.60;;;;;;;9.32;51.03;100675.42;103381;1281;109271;-63
2022/04/11 09:00:51;;;;;;;0.60;0.60;;;;;;;9.01;50.88;100674.34;103282;1279;138320;-64
2022/04/11 09:03:19;;;;;;;0.60;0.60;;;;;;;8.83;51.93;100680.42;103392;1279;96886;-64
2022/04/11 09:06:13;;;;;;;0.70;0.70;;;;;;;8.64;52.26;100678.77;103339;1279;138330;-65
2022/04/11 09:08:55;;;;;;;0.60;0.60;;;;;;;8.66;52.90;100683.69;103428;1279;99459;-62
2022/04/11 09:11:33;;;;;;;0.60;0.60;;;;;;;8.60;52.83;100687.48;103374;1279;138170;-62
2022/04/11 09:14:06;;;;;;;0.70;0.70;;;;;;;8.63;53.65;100694.88;103570;1279;96628;-64
2022/04/11 09:16:50;;;;;;;0.60;0.60;;;;;;;8.62;52.75;100696.14;103533;1279;96816;-64
2022/04/11 09:19:28;;;;;;;0.60;0.60;;;;;;;8.64;53.28;100694.50;103655;1279;111563;-64
2022/04/11 09:22:45;;;;;;;0.80;0.80;;;;;;;9.56;52.85;100692.02;103431;1279;99755;-64
2022/04/11 09:25:21;;;;;;;0.70;0.70;;;;;;;11.21;48.11;100683.27;103182;1279;138234;-65
2022/04/11 09:28:07;;;;;;;0.40;0.40;;;;;;;13.10;43.97;100679.60;103506;1279;97455;-64
2022/04/11 09:30:37;;;;;;;0.60;0.60;;;;;;;14.00;42.29;100674.65;103719;1279;138534;-65
2022/04/11 09:33:07;;;;;;;0.40;0.40;;;;;;;15.40;37.97;100669.23;103505;1279;111238;-65
2022/04/11 09:35:40;;;;;;;0.40;0.40;;;;;;;16.47;36.70;100666.14;103411;1279;138874;-67
2022/04/11 09:38:19;;;;;;;0.40;0.20;;;;;;;17.33;34.39;100669.05;103407;1279;109802;-63
2022/04/11 09:40:51;;;;;;;0.40;0.30;;;;;;;17.66;33.74;100677.11;104228;1279;97101;-64
2022/04/11 09:43:27;;;;;;;0.40;0.10;;;;;;;17.41;33.11;100675.89;103332;1279;138462;-64
2022/04/11 09:45:56;;;;;;;0.40;0.20;;;;;;;16.46;34.05;100675.91;103469;1279;111119;-64
2022/04/11 09:48:37;;;;;;;0.40;0.20;;;;;;;15.35;35.30;100678.56;103347;1279;138956;-64
2022/04/11 09:51:10;;;;;;;0.40;0.30;;;;;;;14.48;37.13;100679.52;103461;1279;108899;-63
2022/04/11 09:53:38;;;;;;;0.40;0.20;;;;;;;14.57;37.30;100676.46;103824;1279;139992;-64
2022/04/11 09:56:08;;;;;;;0.40;0.30;;;;;;;14.45;37.15;100673.17;103476;1281;96556;-64
2022/04/11 09:58:39;;;;;;;0.40;0.30;;;;;;;15.79;36.32;100670.75;103476;1279;111304;-64
2022/04/11 10:01:08;;;;;;;0.40;0.30;;;;;;;17.76;33.36;100666.14;103251;1279;139303;-64
2022/04/11 10:03:36;;;;;;;0.40;0.20;;;;;;;18.98;30.95;100657.83;103294;1281;108914;-64
2022/04/11 10:06:05;;;;;;;0.40;0.20;;;;;;;20.02;30.51;100657.77;103723;1281;138917;-64
2022/04/11 10:08:34;;;;;;;0.40;0.10;;;;;;;21.36;28.40;100655.02;103386;1280;97213;-64
2022/04/11 10:11:04;;;;;;;0.40;0.10;;;;;;;22.03;27.16;100646.49;103186;1281;138760;-63
2022/04/11 10:13:34;;;;;;;0.40;0.10;;;;;;;22.78;25.85;100644.21;103545;1279;98395;-63
2022/04/11 10:16:02;;;;;;;0.40;0.10;;;;;;;23.87;25.08;100647.23;103448;1279;108670;-63
2022/04/11 10:18:30;;;;;;;0.40;0.10;;;;;;;24.59;23.91;100647.01;103311;1281;139227;-65
2022/04/11 10:21:03;;;;;;;0.40;0.10;;;;;;;24.12;23.90;100643.69;103403;1282;96825;-64
2022/04/11 10:24:10;;;;;;;0.40;0.10;;;;;;;22.53;24.57;100651.75;103309;1279;138690;-62
2022/04/11 10:26:45;;;;;;;0.40;0.10;;;;;;;20.55;26.42;100655.23;103657;1279;99528;-63
2022/04/11 10:29:35;;;;;;;0.40;0.10;;;;;;;20.86;26.50;100652.73;103237;1281;138684;-65
2022/04/11 10:32:11;;;;;;;0.40;0.10;;;;;;;22.31;26.23;100643.02;103401;1281;97706;-64
2022/04/11 10:35:00;;;;;;;0.40;0.10;;;;;;;21.62;25.46;100649.80;104217;1281;96681;-65
2022/04/11 10:37:49;;;;;;;0.40;0.10;;;;;;;20.06;26.50;100654.81;103398;1279;138336;-65
2022/04/11 10:40:16;;;;;;;0.40;0.10;;;;;;;18.55;28.08;100654.95;103299;1280;99423;-64
2022/04/11 10:42:59;;;;;;;0.40;0.10;;;;;;;17.44;30.16;100662.25;103307;1281;138519;-65
2022/04/11 10:45:29;;;;;;;0.40;0.20;;;;;;;16.40;31.35;100662.36;103423;1279;97028;-64
2022/04/11 10:47:57;;;;;;;0.40;0.20;;;;;;;15.44;32.64;100660.33;103426;1281;138754;-65
2022/04/11 10:50:28;;;;;;;0.40;0.20;;;;;;;14.88;33.96;100665.45;103870;1279;111022;-64
2022/04/11 10:53:12;;;;;;;0.40;0.20;;;;;;;14.25;34.98;100664.09;103411;1280;99521;-65
2022/04/11 10:55:54;;;;;;;0.40;0.30;;;;;;;13.59;36.99;100671.09;103375;1281;138762;-65
2022/04/11 10:58:24;;;;;;;0.40;0.20;;;;;;;12.86;39.41;100675.41;103541;1280;96583;-64
2022/04/11 11:00:51;;;;;;;0.40;0.30;;;;;;;12.47;40.83;100678.56;103217;1279;138516;-63
2022/04/11 11:03:19;;;;;;;0.40;0.30;;;;;;;12.14;41.51;100675.23;103439;1281;110961;-64
2022/04/11 11:06:18;;;;;;;0.50;0.40;;;;;;;11.95;42.02;100677.34;103115;1281;139349;-65
2022/04/11 11:08:46;;;;;;;0.40;0.30;;;;;;;11.75;42.90;100677.86;103435;1279;108833;-64
2022/04/11 11:11:20;;;;;;;0.40;0.40;;;;;;;11.57;43.37;100679.21;103366;1280;97919;-64
2022/04/11 11:13:50;;;;;;;0.50;0.40;;;;;;;11.28;43.21;100682.06;103325;1281;138224;-63
2022/04/11 11:16:17;;;;;;;0.50;0.40;;;;;;;11.21;44.06;100682.98;103459;1279;110561;-64
2022/04/11 11:19:07;;;;;;;0.50;0.50;;;;;;;11.40;43.95;100685.20;103335;1281;138546;-64
2022/04/11 11:21:37;;;;;;;0.50;0.40;;;;;;;11.40;44.08;100685.52;103384;1281;108801;-66
2022/04/11 11:24:08;;;;;;;0.50;0.40;;;;;;;11.68;44.14;100679.47;103776;1280;139296;-64
2022/04/11 11:26:45;;;;;;;0.50;0.40;;;;;;;11.86;43.84;100675.05;103431;1281;97285;-63
2022/04/11 11:29:17;;;;;;;0.50;0.40;;;;;;;12.00;43.29;100678.98;103463;1281;111441;-63
2022/04/11 11:31:47;;;;;;;0.40;0.40;;;;;;;12.04;42.11;100674.79;103242;1281;138601;-64
2022/04/11 11:34:17;;;;;;;0.40;0.40;;;;;;;11.92;41.53;100669.59;103701;1279;108783;-63